sensor_id;sensor_type;location;lat;lon;timestamp;temperature;humidity
4187;DHT22;2107;52.306;10.484;2023-07-24T00:02:24;18.30;99.90
4187;DHT22;2107;52.306;10.484;2023-07-24T00:04:51;18.30;99.90
4187;DHT22;2107;52.306;10.484;2023-07-24T00:07:18;18.30;99.90
4187;DHT22;2107;52.306;10.484;2023-07-24T00:09:44;18.30;99.90
4187;DHT22;2107;52.306;10.484;2023-07-24T00:12:13;18.30;99.90
4187;DHT22;2107;52.306;10.484;2023-07-24T00:14:39;18.30;99.90
4187;DHT22;2107;52.306;10.484;2023-07-24T00:17:06;18.40;99.90
4187;DHT22;2107;52.306;10.484;2023-07-24T00:19:33;18.30;99.90
4187;DHT22;2107;52.306;10.484;2023-07-24T00:22:00;18.40;99.90
4187;DHT22;2107;52.306;10.484;2023-07-24T00:24:27;18.30;99.90
4187;DHT22;2107;52.306;10.484;2023-07-24T00:26:54;18.40;99.90
4187;DHT22;2107;52.306;10.484;2023-07-24T00:29:22;18.40;99.90
4187;DHT22;2107;52.306;10.484;2023-07-24T00:31:49;18.40;99.90
4187;DHT22;2107;52.306;10.484;2023-07-24T00:34:16;18.50;99.90
4187;DHT22;2107;52.306;10.484;2023-07-24T00:36:42;18.50;99.90
4187;DHT22;2107;52.306;10.484;2023-07-24T00:39:09;18.50;99.90
4187;DHT22;2107;52.306;10.484;2023-07-24T00:41:36;18.50;99.90
4187;DHT22;2107;52.306;10.484;2023-07-24T00:44:03;18.50;99.90
4187;DHT22;2107;52.306;10.484;2023-07-24T00:46:32;18.60;99.90
4187;DHT22;2107;52.306;10.484;2023-07-24T00:49:00;18.60;99.90
4187;DHT22;2107;52.306;10.484;2023-07-24T00:51:28;18.50;99.90
4187;DHT22;2107;52.306;10.484;2023-07-24T00:53:55;18.60;99.90
4187;DHT22;2107;52.306;10.484;2023-07-24T00:56:23;18.60;99.90
4187;DHT22;2107;52.306;10.484;2023-07-24T00:58:49;18.60;99.90
4187;DHT22;2107;52.306;10.484;2023-07-24T01:01:17;18.50;99.90
4187;DHT22;2107;52.306;10.484;2023-07-24T01:03:45;18.50;99.90
4187;DHT22;2107;52.306;10.484;2023-07-24T01:06:12;18.50;99.90
4187;DHT22;2107;52.306;10.484;2023-07-24T01:08:39;18.50;99.90
4187;DHT22;2107;52.306;10.484;2023-07-24T01:11:12;18.50;99.90
4187;DHT22;2107;52.306;10.484;2023-07-24T01:13:51;18.50;99.90
4187;DHT22;2107;52.306;10.484;2023-07-24T01:16:21;18.50;99.90
4187;DHT22;2107;52.306;10.484;2023-07-24T01:18:51;18.40;99.90
4187;DHT22;2107;52.306;10.484;2023-07-24T01:21:29;18.40;99.90
4187;DHT22;2107;52.306;10.484;2023-07-24T01:24:07;18.30;99.90
4187;DHT22;2107;52.306;10.484;2023-07-24T01:26:39;18.30;99.90
4187;DHT22;2107;52.306;10.484;2023-07-24T01:29:06;18.20;99.90
4187;DHT22;2107;52.306;10.484;2023-07-24T01:31:33;18.20;99.90
4187;DHT22;2107;52.306;10.484;2023-07-24T01:34:00;18.20;99.90
4187;DHT22;2107;52.306;10.484;2023-07-24T01:36:27;18.10;99.90
4187;DHT22;2107;52.306;10.484;2023-07-24T01:38:54;18.10;99.90
4187;DHT22;2107;52.306;10.484;2023-07-24T01:41:21;18.10;99.90
4187;DHT22;2107;52.306;10.484;2023-07-24T01:43:49;18.10;99.90
4187;DHT22;2107;52.306;10.484;2023-07-24T01:46:16;18.20;99.90
4187;DHT22;2107;52.306;10.484;2023-07-24T01:48:43;18.30;99.90
4187;DHT22;2107;52.306;10.484;2023-07-24T01:51:10;18.30;99.90
4187;DHT22;2107;52.306;10.484;2023-07-24T01:53:37;18.30;99.90
4187;DHT22;2107;52.306;10.484;2023-07-24T01:56:03;18.30;99.90
4187;DHT22;2107;52.306;10.484;2023-07-24T01:58:30;18.30;99.90
4187;DHT22;2107;52.306;10.484;2023-07-24T02:00:58;18.30;99.90
4187;DHT22;2107;52.306;10.484;2023-07-24T02:03:25;18.30;99.90
4187;DHT22;2107;52.306;10.484;2023-07-24T02:05:52;18.30;99.90
4187;DHT22;2107;52.306;10.484;2023-07-24T02:08:19;18.40;99.90
4187;DHT22;2107;52.306;10.484;2023-07-24T02:10:48;18.40;99.90
4187;DHT22;2107;52.306;10.484;2023-07-24T02:13:15;18.40;99.90
4187;DHT22;2107;52.306;10.484;2023-07-24T02:15:42;18.40;99.90
4187;DHT22;2107;52.306;10.484;2023-07-24T02:18:10;18.40;99.90
4187;DHT22;2107;52.306;10.484;2023-07-24T02:20:37;18.40;99.90
4187;DHT22;2107;52.306;10.484;2023-07-24T02:23:04;18.50;99.90
4187;DHT22;2107;52.306;10.484;2023-07-24T02:25:30;18.50;99.90
4187;DHT22;2107;52.306;10.484;2023-07-24T02:27:57;18.50;99.90
4187;DHT22;2107;52.306;10.484;2023-07-24T02:30:24;18.40;99.90
4187;DHT22;2107;52.306;10.484;2023-07-24T02:32:51;18.40;99.90
4187;DHT22;2107;52.306;10.484;2023-07-24T02:35:19;18.40;99.90
4187;DHT22;2107;52.306;10.484;2023-07-24T02:37:46;18.40;99.90
4187;DHT22;2107;52.306;10.484;2023-07-24T02:40:13;18.50;99.90
4187;DHT22;2107;52.306;10.484;2023-07-24T02:42:40;18.50;99.90
4187;DHT22;2107;52.306;10.484;2023-07-24T02:45:07;18.50;99.90
4187;DHT22;2107;52.306;10.484;2023-07-24T02:47:36;18.40;99.90
4187;DHT22;2107;52.306;10.484;2023-07-24T02:50:03;18.50;99.90
4187;DHT22;2107;52.306;10.484;2023-07-24T02:52:32;18.40;99.90
4187;DHT22;2107;52.306;10.484;2023-07-24T02:54:58;18.50;99.90
4187;DHT22;2107;52.306;10.484;2023-07-24T02:57:25;18.50;99.90
4187;DHT22;2107;52.306;10.484;2023-07-24T02:59:52;18.50;99.90
4187;DHT22;2107;52.306;10.484;2023-07-24T03:02:19;18.50;99.90
4187;DHT22;2107;52.306;10.484;2023-07-24T03:04:46;18.50;99.90
4187;DHT22;2107;52.306;10.484;2023-07-24T03:07:13;18.50;99.90
4187;DHT22;2107;52.306;10.484;2023-07-24T03:09:41;18.50;99.90
4187;DHT22;2107;52.306;10.484;2023-07-24T03:12:08;18.50;99.90
4187;DHT22;2107;52.306;10.484;2023-07-24T03:14:36;18.50;99.90
4187;DHT22;2107;52.306;10.484;2023-07-24T03:17:03;18.50;99.90
4187;DHT22;2107;52.306;10.484;2023-07-24T03:19:30;18.50;99.90
4187;DHT22;2107;52.306;10.484;2023-07-24T03:21:57;18.50;99.90
4187;DHT22;2107;52.306;10.484;2023-07-24T03:24:24;18.40;99.90
4187;DHT22;2107;52.306;10.484;2023-07-24T03:26:52;18.40;99.90
4187;DHT22;2107;52.306;10.484;2023-07-24T03:29:19;18.30;99.90
4187;DHT22;2107;52.306;10.484;2023-07-24T03:31:46;18.30;99.90
4187;DHT22;2107;52.306;10.484;2023-07-24T03:34:12;18.30;99.90
4187;DHT22;2107;52.306;10.484;2023-07-24T03:36:39;18.30;99.90
4187;DHT22;2107;52.306;10.484;2023-07-24T03:39:09;18.40;99.90
4187;DHT22;2107;52.306;10.484;2023-07-24T03:41:36;18.30;99.90
4187;DHT22;2107;52.306;10.484;2023-07-24T03:44:05;18.20;99.90
4187;DHT22;2107;52.306;10.484;2023-07-24T03:46:32;18.10;99.90
4187;DHT22;2107;52.306;10.484;2023-07-24T03:48:59;18.10;99.90
4187;DHT22;2107;52.306;10.484;2023-07-24T03:51:26;18.10;99.90
4187;DHT22;2107;52.306;10.484;2023-07-24T03:53:52;18.10;99.90
4187;DHT22;2107;52.306;10.484;2023-07-24T03:56:19;18.10;99.90
4187;DHT22;2107;52.306;10.484;2023-07-24T03:58:46;18.20;99.90
4187;DHT22;2107;52.306;10.484;2023-07-24T04:01:14;18.20;99.90
4187;DHT22;2107;52.306;10.484;2023-07-24T04:03:41;18.10;99.90
4187;DHT22;2107;52.306;10.484;2023-07-24T04:06:08;18.10;99.90
4187;DHT22;2107;52.306;10.484;2023-07-24T04:08:35;18.10;99.90
4187;DHT22;2107;52.306;10.484;2023-07-24T04:11:02;18.00;99.90
4187;DHT22;2107;52.306;10.484;2023-07-24T04:13:30;18.00;99.90
4187;DHT22;2107;52.306;10.484;2023-07-24T04:15:57;18.10;99.90
4187;DHT22;2107;52.306;10.484;2023-07-24T04:18:26;18.30;99.90
4187;DHT22;2107;52.306;10.484;2023-07-24T04:20:53;18.50;99.90
4187;DHT22;2107;52.306;10.484;2023-07-24T04:23:19;18.60;99.90
4187;DHT22;2107;52.306;10.484;2023-07-24T04:25:46;18.60;99.90
4187;DHT22;2107;52.306;10.484;2023-07-24T04:28:13;18.80;99.90
4187;DHT22;2107;52.306;10.484;2023-07-24T04:30:40;19.00;99.90
4187;DHT22;2107;52.306;10.484;2023-07-24T04:33:07;19.10;99.90
4187;DHT22;2107;52.306;10.484;2023-07-24T04:35:35;19.30;99.90
4187;DHT22;2107;52.306;10.484;2023-07-24T04:38:02;19.20;99.90
4187;DHT22;2107;52.306;10.484;2023-07-24T04:40:29;18.90;99.90
4187;DHT22;2107;52.306;10.484;2023-07-24T04:42:55;18.90;99.90
4187;DHT22;2107;52.306;10.484;2023-07-24T04:45:23;19.00;99.90
4187;DHT22;2107;52.306;10.484;2023-07-24T04:47:50;19.30;99.90
4187;DHT22;2107;52.306;10.484;2023-07-24T04:50:17;19.50;99.90
4187;DHT22;2107;52.306;10.484;2023-07-24T04:52:45;19.70;99.90
4187;DHT22;2107;52.306;10.484;2023-07-24T04:55:12;19.80;99.90
4187;DHT22;2107;52.306;10.484;2023-07-24T04:57:39;19.80;99.90
4187;DHT22;2107;52.306;10.484;2023-07-24T05:00:07;19.90;99.90
4187;DHT22;2107;52.306;10.484;2023-07-24T05:02:34;20.00;99.90
4187;DHT22;2107;52.306;10.484;2023-07-24T05:05:01;20.10;99.90
4187;DHT22;2107;52.306;10.484;2023-07-24T05:07:27;20.00;99.90
4187;DHT22;2107;52.306;10.484;2023-07-24T05:09:56;19.70;99.90
4187;DHT22;2107;52.306;10.484;2023-07-24T05:12:22;19.50;99.90
4187;DHT22;2107;52.306;10.484;2023-07-24T05:14:49;19.20;99.90
4187;DHT22;2107;52.306;10.484;2023-07-24T05:17:16;19.20;99.90
4187;DHT22;2107;52.306;10.484;2023-07-24T05:19:43;19.60;99.90
4187;DHT22;2107;52.306;10.484;2023-07-24T05:22:10;19.90;99.90
4187;DHT22;2107;52.306;10.484;2023-07-24T05:24:37;20.30;99.90
4187;DHT22;2107;52.306;10.484;2023-07-24T05:27:06;20.90;99.90
4187;DHT22;2107;52.306;10.484;2023-07-24T05:29:33;20.90;99.90
4187;DHT22;2107;52.306;10.484;2023-07-24T05:32:00;21.10;99.90
4187;DHT22;2107;52.306;10.484;2023-07-24T05:34:26;21.20;99.90
4187;DHT22;2107;52.306;10.484;2023-07-24T05:36:53;21.10;99.90
4187;DHT22;2107;52.306;10.484;2023-07-24T05:39:20;21.20;99.90
4187;DHT22;2107;52.306;10.484;2023-07-24T05:41:47;21.10;99.90
4187;DHT22;2107;52.306;10.484;2023-07-24T05:44:15;21.20;99.90
4187;DHT22;2107;52.306;10.484;2023-07-24T05:46:42;21.20;99.90
4187;DHT22;2107;52.306;10.484;2023-07-24T05:49:09;21.00;99.90
4187;DHT22;2107;52.306;10.484;2023-07-24T05:51:36;20.80;99.90
4187;DHT22;2107;52.306;10.484;2023-07-24T05:54:03;20.70;99.90
4187;DHT22;2107;52.306;10.484;2023-07-24T05:56:29;20.90;99.90
4187;DHT22;2107;52.306;10.484;2023-07-24T05:58:56;21.20;99.90
4187;DHT22;2107;52.306;10.484;2023-07-24T06:01:24;21.60;99.90
4187;DHT22;2107;52.306;10.484;2023-07-24T06:03:51;21.60;99.90
4187;DHT22;2107;52.306;10.484;2023-07-24T06:06:18;21.40;99.90
4187;DHT22;2107;52.306;10.484;2023-07-24T06:08:45;21.60;99.90
4187;DHT22;2107;52.306;10.484;2023-07-24T06:11:13;21.20;99.90
4187;DHT22;2107;52.306;10.484;2023-07-24T06:13:40;20.90;99.90
4187;DHT22;2107;52.306;10.484;2023-07-24T06:16:06;20.80;99.90
4187;DHT22;2107;52.306;10.484;2023-07-24T06:18:35;20.90;99.90
4187;DHT22;2107;52.306;10.484;2023-07-24T06:21:02;20.60;99.90
4187;DHT22;2107;52.306;10.484;2023-07-24T06:23:29;20.20;99.90
4187;DHT22;2107;52.306;10.484;2023-07-24T06:25:56;20.00;99.90
4187;DHT22;2107;52.306;10.484;2023-07-24T06:28:22;19.90;99.90
4187;DHT22;2107;52.306;10.484;2023-07-24T06:30:52;19.60;99.90
4187;DHT22;2107;52.306;10.484;2023-07-24T06:33:19;19.40;99.90
4187;DHT22;2107;52.306;10.484;2023-07-24T06:35:48;19.20;99.90
4187;DHT22;2107;52.306;10.484;2023-07-24T06:38:15;19.10;99.90
4187;DHT22;2107;52.306;10.484;2023-07-24T06:40:42;19.10;99.90
4187;DHT22;2107;52.306;10.484;2023-07-24T06:43:08;19.40;99.90
4187;DHT22;2107;52.306;10.484;2023-07-24T06:45:35;19.80;99.90
4187;DHT22;2107;52.306;10.484;2023-07-24T06:48:02;20.20;99.90
4187;DHT22;2107;52.306;10.484;2023-07-24T06:50:29;20.60;99.90
4187;DHT22;2107;52.306;10.484;2023-07-24T06:52:58;20.80;99.90
4187;DHT22;2107;52.306;10.484;2023-07-24T06:55:24;21.10;99.90
4187;DHT22;2107;52.306;10.484;2023-07-24T06:57:51;21.30;99.90
4187;DHT22;2107;52.306;10.484;2023-07-24T07:00:18;21.50;99.90
4187;DHT22;2107;52.306;10.484;2023-07-24T07:02:45;21.60;99.90
4187;DHT22;2107;52.306;10.484;2023-07-24T07:05:12;21.60;99.90
4187;DHT22;2107;52.306;10.484;2023-07-24T07:07:39;21.90;99.90
4187;DHT22;2107;52.306;10.484;2023-07-24T07:10:08;22.10;99.90
4187;DHT22;2107;52.306;10.484;2023-07-24T07:12:35;22.00;99.90
4187;DHT22;2107;52.306;10.484;2023-07-24T07:15:02;21.90;99.90
4187;DHT22;2107;52.306;10.484;2023-07-24T07:17:29;22.10;99.90
4187;DHT22;2107;52.306;10.484;2023-07-24T07:19:56;22.20;99.90
4187;DHT22;2107;52.306;10.484;2023-07-24T07:22:23;21.80;99.90
4187;DHT22;2107;52.306;10.484;2023-07-24T07:24:49;21.90;99.90
4187;DHT22;2107;52.306;10.484;2023-07-24T07:27:18;21.90;99.90
4187;DHT22;2107;52.306;10.484;2023-07-24T07:29:45;22.00;99.90
4187;DHT22;2107;52.306;10.484;2023-07-24T07:32:11;22.10;99.90
4187;DHT22;2107;52.306;10.484;2023-07-24T07:34:38;22.00;99.90
4187;DHT22;2107;52.306;10.484;2023-07-24T07:37:05;22.00;99.90
4187;DHT22;2107;52.306;10.484;2023-07-24T07:39:32;22.50;99.90
4187;DHT22;2107;52.306;10.484;2023-07-24T07:41:59;22.60;99.90
4187;DHT22;2107;52.306;10.484;2023-07-24T07:44:27;22.50;99.90
4187;DHT22;2107;52.306;10.484;2023-07-24T07:46:54;22.80;99.90
4187;DHT22;2107;52.306;10.484;2023-07-24T07:49:21;22.70;99.90
4187;DHT22;2107;52.306;10.484;2023-07-24T07:51:48;22.60;99.90
4187;DHT22;2107;52.306;10.484;2023-07-24T07:54:14;22.70;99.90
4187;DHT22;2107;52.306;10.484;2023-07-24T07:56:42;22.90;99.90
4187;DHT22;2107;52.306;10.484;2023-07-24T07:59:09;22.90;99.90
4187;DHT22;2107;52.306;10.484;2023-07-24T08:01:37;22.90;99.90
4187;DHT22;2107;52.306;10.484;2023-07-24T08:04:05;22.90;99.90
4187;DHT22;2107;52.306;10.484;2023-07-24T08:06:32;22.80;99.90
4187;DHT22;2107;52.306;10.484;2023-07-24T08:08:59;22.50;99.90
4187;DHT22;2107;52.306;10.484;2023-07-24T08:11:26;22.90;99.90
4187;DHT22;2107;52.306;10.484;2023-07-24T08:13:53;23.30;99.90
4187;DHT22;2107;52.306;10.484;2023-07-24T08:16:19;23.50;99.90
4187;DHT22;2107;52.306;10.484;2023-07-24T08:18:48;23.80;99.90
4187;DHT22;2107;52.306;10.484;2023-07-24T08:21:15;24.10;99.90
4187;DHT22;2107;52.306;10.484;2023-07-24T08:23:42;24.30;99.90
4187;DHT22;2107;52.306;10.484;2023-07-24T08:26:09;24.30;99.90
4187;DHT22;2107;52.306;10.484;2023-07-24T08:28:36;25.00;99.90
4187;DHT22;2107;52.306;10.484;2023-07-24T08:31:08;24.60;99.90
4187;DHT22;2107;52.306;10.484;2023-07-24T08:33:35;24.60;99.90
4187;DHT22;2107;52.306;10.484;2023-07-24T08:36:04;24.40;99.90
4187;DHT22;2107;52.306;10.484;2023-07-24T08:38:31;24.50;99.90
4187;DHT22;2107;52.306;10.484;2023-07-24T08:41:05;25.10;99.90
4187;DHT22;2107;52.306;10.484;2023-07-24T08:43:34;25.10;99.90
4187;DHT22;2107;52.306;10.484;2023-07-24T08:46:01;24.70;99.90
4187;DHT22;2107;52.306;10.484;2023-07-24T08:48:30;24.40;99.90
4187;DHT22;2107;52.306;10.484;2023-07-24T08:51:00;24.20;99.90
4187;DHT22;2107;52.306;10.484;2023-07-24T08:53:28;24.00;99.90
4187;DHT22;2107;52.306;10.484;2023-07-24T08:55:56;23.80;99.90
4187;DHT22;2107;52.306;10.484;2023-07-24T08:58:22;23.40;99.90
4187;DHT22;2107;52.306;10.484;2023-07-24T09:00:49;23.10;99.90
4187;DHT22;2107;52.306;10.484;2023-07-24T09:03:17;22.60;99.90
4187;DHT22;2107;52.306;10.484;2023-07-24T09:05:44;22.60;99.90
4187;DHT22;2107;52.306;10.484;2023-07-24T09:08:11;22.80;99.90
4187;DHT22;2107;52.306;10.484;2023-07-24T09:10:39;23.50;99.90
4187;DHT22;2107;52.306;10.484;2023-07-24T09:13:06;23.50;99.90
4187;DHT22;2107;52.306;10.484;2023-07-24T09:15:39;23.90;99.90
4187;DHT22;2107;52.306;10.484;2023-07-24T09:18:06;23.90;99.90
4187;DHT22;2107;52.306;10.484;2023-07-24T09:20:38;24.40;99.90
4187;DHT22;2107;52.306;10.484;2023-07-24T09:23:06;25.20;99.90
4187;DHT22;2107;52.306;10.484;2023-07-24T09:25:34;24.60;99.90
4187;DHT22;2107;52.306;10.484;2023-07-24T09:28:09;24.60;99.90
4187;DHT22;2107;52.306;10.484;2023-07-24T09:30:36;24.80;99.90
4187;DHT22;2107;52.306;10.484;2023-07-24T09:33:03;25.00;99.90
4187;DHT22;2107;52.306;10.484;2023-07-24T09:35:30;25.30;99.90
4187;DHT22;2107;52.306;10.484;2023-07-24T09:38:05;26.20;99.90
4187;DHT22;2107;52.306;10.484;2023-07-24T09:40:43;27.00;99.90
4187;DHT22;2107;52.306;10.484;2023-07-24T09:43:19;27.10;99.90
4187;DHT22;2107;52.306;10.484;2023-07-24T09:45:47;26.40;99.90
4187;DHT22;2107;52.306;10.484;2023-07-24T09:48:15;25.90;99.90
4187;DHT22;2107;52.306;10.484;2023-07-24T09:50:43;25.70;99.90
4187;DHT22;2107;52.306;10.484;2023-07-24T09:53:13;25.40;99.90
4187;DHT22;2107;52.306;10.484;2023-07-24T09:55:47;25.10;99.90
4187;DHT22;2107;52.306;10.484;2023-07-24T09:58:15;25.00;99.90
4187;DHT22;2107;52.306;10.484;2023-07-24T10:00:45;24.70;99.90
4187;DHT22;2107;52.306;10.484;2023-07-24T10:03:13;24.40;99.90
4187;DHT22;2107;52.306;10.484;2023-07-24T10:05:41;24.30;99.90
4187;DHT22;2107;52.306;10.484;2023-07-24T10:08:09;24.40;99.90
4187;DHT22;2107;52.306;10.484;2023-07-24T10:10:36;24.40;99.90
4187;DHT22;2107;52.306;10.484;2023-07-24T10:13:04;24.50;99.90
4187;DHT22;2107;52.306;10.484;2023-07-24T10:15:32;25.00;99.90
4187;DHT22;2107;52.306;10.484;2023-07-24T10:18:05;25.20;99.90
4187;DHT22;2107;52.306;10.484;2023-07-24T10:20:33;25.50;99.90
4187;DHT22;2107;52.306;10.484;2023-07-24T10:23:01;25.40;99.90
4187;DHT22;2107;52.306;10.484;2023-07-24T10:25:29;25.00;99.90
4187;DHT22;2107;52.306;10.484;2023-07-24T10:28:04;24.80;99.90
4187;DHT22;2107;52.306;10.484;2023-07-24T10:30:33;25.20;99.90
4187;DHT22;2107;52.306;10.484;2023-07-24T10:33:06;25.50;99.90
4187;DHT22;2107;52.306;10.484;2023-07-24T10:35:40;25.50;99.90
4187;DHT22;2107;52.306;10.484;2023-07-24T10:38:08;25.50;99.90
4187;DHT22;2107;52.306;10.484;2023-07-24T10:40:35;25.50;99.90
4187;DHT22;2107;52.306;10.484;2023-07-24T10:43:05;25.20;99.90
4187;DHT22;2107;52.306;10.484;2023-07-24T10:45:40;25.20;99.90
4187;DHT22;2107;52.306;10.484;2023-07-24T10:48:08;26.10;99.90
4187;DHT22;2107;52.306;10.484;2023-07-24T10:50:38;26.40;99.90
4187;DHT22;2107;52.306;10.484;2023-07-24T10:53:05;26.50;99.90
4187;DHT22;2107;52.306;10.484;2023-07-24T10:55:32;26.50;99.90
4187;DHT22;2107;52.306;10.484;2023-07-24T10:57:58;26.60;99.90
4187;DHT22;2107;52.306;10.484;2023-07-24T11:00:27;26.70;99.90
4187;DHT22;2107;52.306;10.484;2023-07-24T11:02:54;26.60;99.90
4187;DHT22;2107;52.306;10.484;2023-07-24T11:05:22;26.40;99.90
4187;DHT22;2107;52.306;10.484;2023-07-24T11:07:50;26.30;99.90
4187;DHT22;2107;52.306;10.484;2023-07-24T11:10:17;26.20;99.90
4187;DHT22;2107;52.306;10.484;2023-07-24T11:12:44;26.70;99.90
4187;DHT22;2107;52.306;10.484;2023-07-24T11:15:11;27.10;99.90
4187;DHT22;2107;52.306;10.484;2023-07-24T11:17:39;27.40;99.90
4187;DHT22;2107;52.306;10.484;2023-07-24T11:20:09;27.80;99.90
4187;DHT22;2107;52.306;10.484;2023-07-24T11:22:38;28.80;99.90
4187;DHT22;2107;52.306;10.484;2023-07-24T11:25:06;28.40;99.90
4187;DHT22;2107;52.306;10.484;2023-07-24T11:27:38;28.20;99.90
4187;DHT22;2107;52.306;10.484;2023-07-24T11:30:07;28.00;99.90
4187;DHT22;2107;52.306;10.484;2023-07-24T11:32:34;27.30;99.90
4187;DHT22;2107;52.306;10.484;2023-07-24T11:35:01;26.80;99.90
4187;DHT22;2107;52.306;10.484;2023-07-24T11:37:29;26.50;99.90
4187;DHT22;2107;52.306;10.484;2023-07-24T11:39:58;26.50;99.90
4187;DHT22;2107;52.306;10.484;2023-07-24T11:42:30;26.30;99.90
4187;DHT22;2107;52.306;10.484;2023-07-24T11:45:00;26.60;99.90
4187;DHT22;2107;52.306;10.484;2023-07-24T11:47:28;26.50;99.90
4187;DHT22;2107;52.306;10.484;2023-07-24T11:50:00;26.90;99.90
4187;DHT22;2107;52.306;10.484;2023-07-24T11:52:37;27.40;99.90
4187;DHT22;2107;52.306;10.484;2023-07-24T11:55:07;28.10;99.90
4187;DHT22;2107;52.306;10.484;2023-07-24T11:57:34;28.60;99.90
4187;DHT22;2107;52.306;10.484;2023-07-24T12:00:01;28.90;99.90
4187;DHT22;2107;52.306;10.484;2023-07-24T12:02:29;28.70;99.90
4187;DHT22;2107;52.306;10.484;2023-07-24T12:04:56;28.40;99.90
4187;DHT22;2107;52.306;10.484;2023-07-24T12:07:29;28.00;99.90
4187;DHT22;2107;52.306;10.484;2023-07-24T12:09:56;27.90;99.90
4187;DHT22;2107;52.306;10.484;2023-07-24T12:12:24;27.90;99.90
4187;DHT22;2107;52.306;10.484;2023-07-24T12:14:52;27.70;99.90
4187;DHT22;2107;52.306;10.484;2023-07-24T12:17:19;27.90;99.90
4187;DHT22;2107;52.306;10.484;2023-07-24T12:19:46;28.20;99.90
4187;DHT22;2107;52.306;10.484;2023-07-24T12:22:13;28.40;99.90
4187;DHT22;2107;52.306;10.484;2023-07-24T12:24:40;28.60;99.90
4187;DHT22;2107;52.306;10.484;2023-07-24T12:27:07;28.30;99.90
4187;DHT22;2107;52.306;10.484;2023-07-24T12:29:35;27.90;99.90
4187;DHT22;2107;52.306;10.484;2023-07-24T12:32:02;27.20;99.90
4187;DHT22;2107;52.306;10.484;2023-07-24T12:34:29;26.90;99.90
4187;DHT22;2107;52.306;10.484;2023-07-24T12:36:56;26.80;99.90
4187;DHT22;2107;52.306;10.484;2023-07-24T12:39:23;26.80;99.90
4187;DHT22;2107;52.306;10.484;2023-07-24T12:41:50;27.30;99.90
4187;DHT22;2107;52.306;10.484;2023-07-24T12:44:17;27.90;99.90
4187;DHT22;2107;52.306;10.484;2023-07-24T12:46:45;28.10;99.90
4187;DHT22;2107;52.306;10.484;2023-07-24T12:49:13;27.90;99.90
4187;DHT22;2107;52.306;10.484;2023-07-24T12:51:39;27.60;99.90
4187;DHT22;2107;52.306;10.484;2023-07-24T12:54:06;27.40;99.90
4187;DHT22;2107;52.306;10.484;2023-07-24T12:56:33;27.30;99.90
4187;DHT22;2107;52.306;10.484;2023-07-24T12:59:01;27.20;99.90
4187;DHT22;2107;52.306;10.484;2023-07-24T13:01:29;26.60;99.90
4187;DHT22;2107;52.306;10.484;2023-07-24T13:03:57;26.50;99.90
4187;DHT22;2107;52.306;10.484;2023-07-24T13:06:24;26.00;99.90
4187;DHT22;2107;52.306;10.484;2023-07-24T13:08:51;25.90;99.90
4187;DHT22;2107;52.306;10.484;2023-07-24T13:11:17;25.90;99.90
4187;DHT22;2107;52.306;10.484;2023-07-24T13:13:44;25.60;99.90
4187;DHT22;2107;52.306;10.484;2023-07-24T13:16:11;25.30;99.90
4187;DHT22;2107;52.306;10.484;2023-07-24T13:18:38;25.00;99.90
4187;DHT22;2107;52.306;10.484;2023-07-24T13:21:06;24.80;99.90
4187;DHT22;2107;52.306;10.484;2023-07-24T13:23:33;23.60;99.90
4187;DHT22;2107;52.306;10.484;2023-07-24T13:26:00;22.70;99.90
4187;DHT22;2107;52.306;10.484;2023-07-24T13:28:28;22.10;99.90
4187;DHT22;2107;52.306;10.484;2023-07-24T13:30:54;21.80;99.90
4187;DHT22;2107;52.306;10.484;2023-07-24T13:33:22;21.30;99.90
4187;DHT22;2107;52.306;10.484;2023-07-24T13:35:49;21.10;99.90
4187;DHT22;2107;52.306;10.484;2023-07-24T13:38:17;20.90;99.90
4187;DHT22;2107;52.306;10.484;2023-07-24T13:40:44;21.00;99.90
4187;DHT22;2107;52.306;10.484;2023-07-24T13:43:11;21.00;99.90
4187;DHT22;2107;52.306;10.484;2023-07-24T13:45:38;21.60;99.90
4187;DHT22;2107;52.306;10.484;2023-07-24T13:48:05;23.30;99.90
4187;DHT22;2107;52.306;10.484;2023-07-24T13:50:32;25.90;99.90
4187;DHT22;2107;52.306;10.484;2023-07-24T13:52:59;28.00;99.90
4187;DHT22;2107;52.306;10.484;2023-07-24T13:55:27;28.80;99.90
4187;DHT22;2107;52.306;10.484;2023-07-24T13:57:54;27.10;99.90
4187;DHT22;2107;52.306;10.484;2023-07-24T14:00:21;25.80;99.90
4187;DHT22;2107;52.306;10.484;2023-07-24T14:02:48;25.40;99.90
4187;DHT22;2107;52.306;10.484;2023-07-24T14:05:15;25.20;99.90
4187;DHT22;2107;52.306;10.484;2023-07-24T14:07:42;25.00;99.90
4187;DHT22;2107;52.306;10.484;2023-07-24T14:10:10;24.40;99.90
4187;DHT22;2107;52.306;10.484;2023-07-24T14:12:38;24.00;99.90
4187;DHT22;2107;52.306;10.484;2023-07-24T14:15:06;23.70;99.90
4187;DHT22;2107;52.306;10.484;2023-07-24T14:17:33;23.40;99.90
4187;DHT22;2107;52.306;10.484;2023-07-24T14:20:00;23.20;99.90
4187;DHT22;2107;52.306;10.484;2023-07-24T14:22:27;23.10;99.90
4187;DHT22;2107;52.306;10.484;2023-07-24T14:24:54;22.80;99.90
4187;DHT22;2107;52.306;10.484;2023-07-24T14:27:21;22.90;99.90
4187;DHT22;2107;52.306;10.484;2023-07-24T14:29:49;23.60;99.90
4187;DHT22;2107;52.306;10.484;2023-07-24T14:32:16;24.00;99.90
4187;DHT22;2107;52.306;10.484;2023-07-24T14:34:42;24.20;99.90
4187;DHT22;2107;52.306;10.484;2023-07-24T14:37:09;24.20;99.90
4187;DHT22;2107;52.306;10.484;2023-07-24T14:39:36;24.10;99.90
4187;DHT22;2107;52.306;10.484;2023-07-24T14:42:03;23.70;99.90
4187;DHT22;2107;52.306;10.484;2023-07-24T14:44:30;23.30;99.90
4187;DHT22;2107;52.306;10.484;2023-07-24T14:46:58;22.80;99.90
4187;DHT22;2107;52.306;10.484;2023-07-24T14:49:25;22.60;99.90
4187;DHT22;2107;52.306;10.484;2023-07-24T14:51:52;22.50;99.90
4187;DHT22;2107;52.306;10.484;2023-07-24T14:54:19;22.40;99.90
4187;DHT22;2107;52.306;10.484;2023-07-24T14:56:46;22.00;99.90
4187;DHT22;2107;52.306;10.484;2023-07-24T14:59:13;21.80;99.90
4187;DHT22;2107;52.306;10.484;2023-07-24T15:01:39;21.70;99.90
4187;DHT22;2107;52.306;10.484;2023-07-24T15:04:07;21.50;99.90
4187;DHT22;2107;52.306;10.484;2023-07-24T15:06:34;21.10;99.90
4187;DHT22;2107;52.306;10.484;2023-07-24T15:09:01;19.60;99.90
4187;DHT22;2107;52.306;10.484;2023-07-24T15:11:28;18.50;99.90
4187;DHT22;2107;52.306;10.484;2023-07-24T15:13:55;17.40;99.90
4187;DHT22;2107;52.306;10.484;2023-07-24T15:16:22;16.90;99.90
4187;DHT22;2107;52.306;10.484;2023-07-24T15:18:49;16.70;99.90
4187;DHT22;2107;52.306;10.484;2023-07-24T15:21:17;16.50;99.90
4187;DHT22;2107;52.306;10.484;2023-07-24T15:23:44;16.40;99.90
4187;DHT22;2107;52.306;10.484;2023-07-24T15:26:17;16.40;99.90
4187;DHT22;2107;52.306;10.484;2023-07-24T15:28:43;16.30;99.90
4187;DHT22;2107;52.306;10.484;2023-07-24T15:31:10;16.30;99.90
4187;DHT22;2107;52.306;10.484;2023-07-24T15:33:37;16.20;99.90
4187;DHT22;2107;52.306;10.484;2023-07-24T15:36:04;16.20;99.90
4187;DHT22;2107;52.306;10.484;2023-07-24T15:38:33;16.20;99.90
4187;DHT22;2107;52.306;10.484;2023-07-24T15:41:00;16.20;99.90
4187;DHT22;2107;52.306;10.484;2023-07-24T15:43:26;16.30;99.90
4187;DHT22;2107;52.306;10.484;2023-07-24T15:45:53;16.30;99.90
4187;DHT22;2107;52.306;10.484;2023-07-24T15:48:20;16.40;99.90